Home > Products > Valid Products > TAF

000
FTUS41 KALY 300500
TAFGFL
TAF
KGFL 300534Z 3006/3106 00000KT P6SM BKN080
      TEMPO 3006/3008 2SM BR SCT080
     FM300800 00000KT 2SM BR FEW080
      TEMPO 3008/3011 3/4SM BR SKC
     FM301100 18005KT P6SM SCT050
     FM301800 18007KT P6SM BKN050
     FM310200 18003KT P6SM BKN050=



000
FTUS41 KALY 300500
TAFPOU
TAF
KPOU 300534Z 3006/3106 00000KT P6SM OVC080
     FM300900 00000KT P6SM SCT080
     FM301300 26003KT P6SM SCT050
     FM301700 25007KT P6SM BKN060
     FM310200 00000KT P6SM BKN060=



000
FTUS41 KALY 300500
TAFALB
TAF
KALB 300534Z 3006/3106 00000KT P6SM BKN080
     FM300900 00000KT P6SM SCT080
     FM301200 20003KT P6SM SCT050
     FM301700 20006KT P6SM BKN050
     FM310200 18003KT P6SM BKN050=



000
FTUS41 KALY 292300
TAFPOU
TAF
KPOU 292321Z 3000/3024 VRB05KT P6SM SCT050 BKN080
     FM300600 00000KT P6SM VCFG SCT050 SCT080
     FM301300 22005KT P6SM SCT050
     FM301800 24007KT P6SM BKN060=



000
FTUS41 KALY 292300
TAFALB
TAF
KALB 292321Z 3000/3024 VRB05KT P6SM SCT050 SCT080
     FM300600 00000KT P6SM VCFG SCT050 SCT080
     FM301300 20005KT P6SM SCT050
     FM301800 21007KT P6SM VCSH BKN050=



000
FTUS41 KALY 292300
TAFGFL
TAF
KGFL 292321Z 3000/3024 00000KT P6SM SCT050 SCT080
     FM300600 00000KT 3SM BR VCFG SCT050 SCT080
     FM301300 18005KT P6SM SCT050
     FM301800 18007KT P6SM VCSH BKN050=



000
FTUS41 KALY 291700
TAFALB
TAF
KALB 291732Z 2918/3018 29011KT P6SM SCT060
     FM300100 27003KT P6SM FEW060
     FM301300 18006KT P6SM SCT050=



000
FTUS41 KALY 291700
TAFPOU
TAF
KPOU 291732Z 2918/3018 26006KT P6SM SCT060
     FM300100 00000KT P6SM FEW060
     FM301300 21006KT P6SM SCT050=



000
FTUS41 KALY 291700
TAFGFL
TAF
KGFL 291732Z 2918/3018 21006KT P6SM SCT060
     FM300100 18003KT P6SM SCT050
     FM300600 00000KT 2SM BR SCT050
     FM301300 18006KT P6SM SCT050=



000
FTUS41 KALY 291100
TAFALB
TAF
KALB 291135Z 2912/3012 29008KT P6SM SCT080 BKN250
     FM291600 29008KT P6SM SCT060
     FM300100 27003KT P6SM FEW060=



000
FTUS41 KALY 291100
TAFGFL
TAF
KGFL 291135Z 2912/3012 25003KT P6SM SCT090 BKN250
     FM291600 21006KT P6SM SCT060
     FM300100 18003KT P6SM SCT050
     FM300600 00000KT 2SM BR SCT050=



000
FTUS41 KALY 291100
TAFPOU
TAF
KPOU 291135Z 2912/3012 25004KT P6SM BKN250
     FM291600 26005KT P6SM SCT060
     FM300100 00000KT P6SM FEW060=



000
FTUS41 KALY 290500
TAFPOU
TAF
KPOU 290536Z 2906/3006 29005KT P6SM OVC045
     FM290900 26003KT P6SM SCT045
     FM291700 26005KT P6SM SCT060
     FM300100 00000KT P6SM FEW060=



000
FTUS41 KALY 290500
TAFALB
TAF
KALB 290536Z 2906/3006 28006KT P6SM OVC050
     FM290900 28005KT P6SM SCT050
     FM291600 29008KT P6SM SCT060
     FM300100 27003KT P6SM FEW060=



000
FTUS41 KALY 290500
TAFGFL
TAF
KGFL 290536Z 2906/3006 32005KT P6SM OVC050
     FM290900 25003KT P6SM SCT050
     FM291600 21006KT P6SM SCT060
     FM300100 18003KT P6SM SCT050=



000
FTUS41 KALY 290300 AAA
TAFPOU
TAF AMD
KPOU 290305Z 2903/2924 30006KT P6SM BKN040 OVC050
     FM291300 29005KT P6SM SCT040
     FM291700 26005KT P6SM SCT060=



000
FTUS41 KALY 290300 AAB
TAFALB
TAF AMD
KALB 290305Z 2903/2924 28012KT P6SM VCSH BKN035 OVC050
      TEMPO 2903/2904 3SM -RA BR BKN035 OVC050
     FM290400 28007KT P6SM SCT035 BKN050
     FM291300 28005KT P6SM FEW045
     FM291700 28007KT P6SM SCT060=



000
FTUS41 KALY 290300 AAB
TAFGFL
TAF AMD
KGFL 290304Z 2903/2924 31006KT P6SM -RA OVC060
     FM290600 31006KT P6SM BKN060
     FM291300 23005KT P6SM SCT045
     FM291700 21007KT P6SM SCT060=



000
FTUS41 KALY 290200 AAA
TAFALB
TAF AMD
KALB 290201Z 2902/2924 28010KT 4SM BR VCSH SCT015 OVC025
      TEMPO 2902/2904 2SM -SHRA BR SCT005 BKN015 OVC025
     FM290400 28004KT 3SM BR BKN005
     FM291300 28005KT P6SM FEW045
     FM291700 28007KT P6SM SCT060=



000
FTUS41 KALY 290100 AAA
TAFGFL
TAF AMD
KGFL 290101Z 2901/2924 34010KT 6SM BR VCSH SCT020 BKN035 OVC045
      TEMPO 2901/2904 3SM -SHRA BR FEW005 BKN020 OVC035
     FM290400 31004KT 2SM BR BKN005
     FM291300 23005KT P6SM SCT045
     FM291700 21007KT P6SM SCT060=



000
FTUS41 KALY 282300
TAFALB
TAF
KALB 282337Z 2900/2924 28010KT 6SM BR VCSH SCT005 BKN025 OVC080
      TEMPO 2900/2904 3SM -SHRA BR BKN005
     FM290400 28004KT 3SM BR BKN005
     FM291300 28005KT P6SM FEW045
     FM291700 28007KT P6SM SCT060=



000
FTUS41 KALY 282300
TAFGFL
TAF
KGFL 282337Z 2900/2924 34010KT 6SM BR VCSH SCT005 BKN015 OVC030
      TEMPO 2900/2904 3SM -SHRA BR BKN005
     FM290400 31004KT 2SM BR BKN005
     FM291300 23005KT P6SM SCT045
     FM291700 21007KT P6SM SCT060=



000
FTUS41 KALY 282300
TAFPOU
TAF
KPOU 282337Z 2900/2924 26010KT P6SM SCT030 BKN080
      TEMPO 2901/2905 BKN030
     FM290500 28005KT 5SM BR VCFG SCT005
     FM291300 29005KT P6SM SCT040
     FM291700 26005KT P6SM SCT060=



000
FTUS41 KALY 282200 AAD
TAFGFL
TAF AMD
KGFL 282237Z 2823/2918 07004KT P6SM VCSH SCT022 BKN030 OVC060
      TEMPO 2823/2824 1SM -TSRA BR BKN005CB
     FM290000 34010G16KT P6SM VCSH BKN015 OVC030
     FM290500 31003KT 4SM BR SKC
     FM290900 VRB03KT 2SM BR SCT003
     FM291300 30005KT P6SM SCT040=



000
FTUS41 KALY 282200 AAC
TAFGFL
TAF AMD
KGFL 282215Z 2822/2918 07004KT P6SM VCSH SCT022 BKN030 OVC060
      TEMPO 2822/2824 1SM -TSRA BR BKN015CB
     FM290000 34010G16KT P6SM VCSH BKN015 OVC030
     FM290500 31003KT 4SM BR SKC
     FM290900 VRB03KT 2SM BR SCT003
     FM291300 30005KT P6SM SCT040=



000
FTUS41 KALY 282100 AAD
TAFALB
TAF AMD
KALB 282142Z 2822/2918 23005KT 6SM -RA BR FEW022 SCT045 BKN100
     FM290000 30014G20KT P6SM BKN035
     FM290900 29007KT 5SM BR FEW250
     FM291300 30005KT P6SM SCT040=



000
FTUS41 KALY 282100 AAB
TAFPOU
TAF AMD
KPOU 282105Z 2821/2918 23008KT P6SM FEW040 SCT110
      TEMPO 2822/2824 5SM -RA BR OVC030
     FM290000 26010KT P6SM SCT050
     FM290900 VRB04KT 2SM BR SCT050
     FM291300 29005KT P6SM SCT040=



000
FTUS41 KALY 282100 AAC
TAFALB
TAF AMD
KALB 282100Z 2821/2918 00000KT 4SM -TSRA BR FEW022 SCT045CB BKN100
     FM282200 33010KT 6SM -RA BR BKN030
     FM290000 30014G20KT P6SM BKN035
     FM290900 29007KT 5SM BR FEW250
     FM291300 30005KT P6SM SCT040=



000
FTUS41 KALY 282000 AAB
TAFGFL
TAF AMD
KGFL 282058Z 2821/2918 07004KT P6SM VCSH SCT022 BKN030 OVC060
     FM290000 34010G16KT P6SM VCSH BKN015 OVC030
     FM290500 31003KT 4SM BR SKC
     FM290900 VRB03KT 2SM BR SCT003
     FM291300 30005KT P6SM SCT040=



000
FTUS41 KALY 282000 AAB
TAFALB
TAF AMD
KALB 282005Z 2820/2918 26008KT P6SM -TSRA FEW008 SCT028CB OVC090
     FM290000 30014G20KT P6SM BKN035
     FM290900 29007KT 5SM BR FEW250
     FM291300 30005KT P6SM SCT040=



000
FTUS41 KALY 282000 AAA
TAFGFL
TAF AMD
KGFL 282005Z 2820/2918 00000KT P6SM SCT016 OVC027
     FM282100 03006KT 4SM -TSRA BR SCT008 OVC015CB
     FM290000 34010G16KT P6SM VCSH BKN015 OVC030
     FM290500 31003KT 4SM BR SKC
     FM290900 VRB03KT 2SM BR SCT003
     FM291300 30005KT P6SM SCT040=



000
FTUS41 KALY 282000 AAA
TAFPOU
TAF AMD
KPOU 282004Z 2820/2918 25012G25KT P6SM -RA FEW050 SCT070 BKN100
      TEMPO 2820/2821 24006KT 4SM -TSRA BR SCT015 OVC030CB
     FM290000 26010KT P6SM SCT050
     FM290900 VRB04KT 2SM BR SCT050
     FM291300 29005KT P6SM SCT040=



000
FTUS41 KALY 281900 AAA
TAFALB
TAF AMD
KALB 281902Z 2819/2918 03006KT 4SM -TSRA BR SCT010 OVC025CB
      TEMPO 2819/2820 1/4SM +TSRA FG BKN020CB
     FM290000 30014G20KT P6SM BKN035
     FM290900 29007KT 5SM BR FEW250
     FM291300 30005KT P6SM SCT040=



000
FTUS41 KALY 281700 CCA
TAFGFL
TAF COR
KGFL 281759Z 2818/2918 00000KT P6SM SCT016 OVC027
     FM281930 03006KT 4SM -TSRA BR SCT008 OVC015CB
     FM290000 34010G16KT P6SM VCSH BKN015 OVC030
     FM290500 31003KT 4SM BR SKC
     FM290900 VRB03KT 2SM BR SCT003
     FM291300 30005KT P6SM SCT040=



000
FTUS41 KALY 281700
TAFALB
TAF
KALB 281739Z 2818/2918 00000KT P6SM SCT026 BKN080 BKN150 BKN270
     FM281900 03006KT 4SM -TSRA BR SCT010 OVC025CB
     FM290000 30014G20KT P6SM BKN035
     FM290900 29007KT 5SM BR FEW250
     FM291300 30005KT P6SM SCT040=



000
FTUS41 KALY 281700
TAFPOU
TAF
KPOU 281739Z 2818/2918 22008KT P6SM VCSH FEW030
     FM282000 24006KT 4SM -TSRA BR SCT015 OVC030CB
     FM290000 26010KT P6SM SCT050
     FM290900 VRB04KT 2SM BR SCT050
     FM291300 29005KT P6SM SCT040=



000
FTUS41 KALY 281700
TAFGFL
TAF
KGFL 281739Z 2818/2918 07003KT P6SM OVC015
     FM281900 03006KT 4SM -TSRA BR SCT008 OVC015CB
     FM290000 34010G16KT P6SM VCSH BKN015 OVC030
     FM290500 31003KT 4SM BR SKC
     FM290900 VRB03KT 2SM BR SCT003
     FM291300 30005KT P6SM SCT040=



000
FTUS41 KALY 281600 AAC
TAFGFL
TAF AMD
KGFL 281651Z 2817/2912 01004KT P6SM OVC015
     FM281900 03006KT 4SM -SHRA BR SCT008 OVC015
     FM282200 36010G16KT P6SM VCSH BKN015 OVC030
     FM290200 31006KT P6SM BKN050
     FM291000 24003KT P6SM SCT050=



000
FTUS41 KALY 281600 AAD
TAFALB
TAF AMD
KALB 281607Z 2816/2912 00000KT P6SM BKN016 OVC023
     FM281800 17009KT 3SM -TSRA BR BKN030CB OVC050
     FM282100 27014G20KT P6SM BKN050
     FM290800 29007KT P6SM SCT050=



000
FTUS41 KALY 281500 AAC
TAFALB
TAF AMD
KALB 281503Z 2815/2912 00000KT P6SM OVC011
     FM281600 VRB05KT P6SM BKN040
     FM281800 17009KT 3SM -TSRA BR BKN030CB OVC050
     FM282100 27014G20KT P6SM BKN050
     FM290800 29007KT P6SM SCT050=



000
FTUS41 KALY 281400 AAB
TAFPOU
TAF AMD
KPOU 281436Z 2815/2912 23008KT P6SM VCSH BKN017 BKN022 OVC035
     FM281530 23008KT P6SM BKN035
     FM281800 23010KT 3SM -TSRA BR BKN030CB BKN070
     FM282100 26012KT P6SM BKN050
     FM290500 26005KT P6SM SCT050=



000
FTUS41 KALY 281400 AAB
TAFGFL
TAF AMD
KGFL 281434Z 2815/2912 02009KT P6SM VCSH FEW018 OVC026
     FM281800 06008KT 4SM -SHRA BR SCT008 OVC015
     FM282200 32010G16KT P6SM VCSH BKN015 OVC030
     FM290200 31006KT P6SM BKN050
     FM291000 24003KT P6SM SCT050=



000
FTUS41 KALY 281300 AAB
TAFALB
TAF AMD
KALB 281325Z 2813/2912 36006KT P6SM VCSH BKN009 OVC035
     FM281430 VRB05KT P6SM BKN040
     FM281800 17009KT 3SM -TSRA BR BKN030CB OVC050
     FM282100 27014G20KT P6SM BKN050
     FM290800 29007KT P6SM SCT050=



000
FTUS41 KALY 281300 AAA
TAFPOU
TAF AMD
KPOU 281317Z 2813/2912 16003KT P6SM VCSH SCT014 BKN024 OVC029
      TEMPO 2813/2814 BKN015
     FM281400 22007KT P6SM VCSH BKN040
     FM281800 23010KT 3SM -TSRA BR BKN030CB BKN070
     FM282100 26012KT P6SM BKN050
     FM290500 26005KT P6SM SCT050=



000
FTUS41 KALY 281300 AAA
TAFALB
TAF AMD
KALB 281314Z 2813/2912 02007KT P6SM VCSH SCT008 BKN035 OVC050
     FM281400 VRB05KT P6SM BKN040
     FM281800 17009KT 3SM -TSRA BR BKN030CB OVC050
     FM282100 27014G20KT P6SM BKN050
     FM290800 29007KT P6SM SCT050=



000
FTUS41 KALY 281300 AAA
TAFGFL
TAF AMD
KGFL 281313Z 2813/2912 01005KT P6SM -RA SCT012 SCT017 OVC040
      TEMPO 2813/2814 5SM -RA BR BKN012 OVC040
     FM281500 05006KT P6SM VCSH BKN050
     FM281800 06008KT 4SM -SHRA BR SCT008 OVC015
     FM282200 32010G16KT P6SM VCSH BKN015 OVC030
     FM290200 31006KT P6SM BKN050
     FM291000 24003KT P6SM SCT050=



000
FTUS41 KALY 281100 CCB
TAFGFL
TAF COR
KGFL 281157Z 2812/2912 VRB03KT 1 1/2SM RA BR FEW010 BKN040 OVC070
      TEMPO 2812/2814 5SM -RA BR BKN009 OVC050
     FM281500 05006KT P6SM VCSH BKN050
     FM281800 06008KT 4SM -SHRA BR SCT008 OVC015
     FM282200 32010G16KT P6SM VCSH BKN015 OVC030
     FM290200 31006KT P6SM BKN050
     FM291000 24003KT P6SM SCT050=



000
FTUS41 KALY 281100 CCA
TAFGFL
TAF COR
KGFL 281155Z 2812/2912 14003KT 2SM RA BR FEW010 BKN040 OVC070
      TEMPO 2812/2813 5SM -RA BR BKN009 OVC050
     FM281500 05006KT P6SM VCSH BKN050
     FM281800 06008KT 4SM -SHRA BR SCT008 OVC015
     FM282200 32010G16KT P6SM VCSH BKN015 OVC030
     FM290200 31006KT P6SM BKN050
     FM291000 24003KT P6SM SCT050=



000
FTUS41 KALY 281100 RRA
TAFALB
TAF
KALB 281145Z 2812/2912 01008KT P6SM BKN008 BKN023 OVC035
      TEMPO 2812/2813 5SM -RA BR BKN025 OVC050
     FM281400 15007KT P6SM VCSH BKN040
     FM281800 17009KT 3SM -TSRA BR BKN030CB OVC050
     FM282100 27014G20KT P6SM BKN050
     FM290800 29007KT P6SM SCT050=



000
FTUS41 KALY 281100 RRA
TAFPOU
TAF
KPOU 281145Z 2812/2912 00000KT P6SM VCSH BKN009 OVC014
      TEMPO 2812/2814 BKN015
     FM281400 22007KT P6SM VCSH BKN040
     FM281800 23010KT 3SM -TSRA BR BKN030CB BKN070
     FM282100 26012KT P6SM BKN050
     FM290500 26005KT P6SM SCT050=



000
FTUS41 KALY 281100 RRA
TAFGFL
TAF
KGFL 281145Z 2812/2912 10005KT P6SM -RA SCT009 OVC090
      TEMPO 2812/2813 5SM -RA BR BKN009 OVC050
     FM281500 05006KT P6SM VCSH BKN050
     FM281800 06008KT 4SM -SHRA BR SCT008 OVC015
     FM282200 32010G16KT P6SM VCSH BKN015 OVC030
     FM290200 31006KT P6SM BKN050
     FM291000 24003KT P6SM SCT050=



000
FTUS41 KALY 281100 AAD
TAFALB
TAF AMD
KALB 281110Z 2811/2906 02007KT 1 1/2SM +RA BR SCT008 BKN035 OVC050
     FM281200 15005KT P6SM VCSH BKN045 BKN090
     FM281600 15007KT 5SM -SHRA BR BKN040 BKN090
     FM282100 27013G20KT P6SM BKN050=



000
FTUS41 KALY 281000 AAC
TAFALB
TAF AMD
KALB 281056Z 2811/2906 11003KT 2SM -RA BR SCT008 BKN040 OVC050
     FM281200 15005KT P6SM VCSH BKN045 BKN090
     FM281600 15007KT 5SM -SHRA BR BKN040 BKN090
     FM282100 27013G20KT P6SM BKN050=



000
FTUS41 KALY 281000 AAC
TAFGFL
TAF AMD
KGFL 281045Z 2811/2906 03005KT P6SM -RA OVC100
      TEMPO 2811/2813 BKN007
     FM281300 05006KT P6SM VCSH BKN050
     FM281600 06008KT 4SM -SHRA BR SCT008 OVC015
     FM282200 32010G16KT P6SM VCSH BKN015 OVC030
     FM290200 31006KT P6SM BKN050=



000
FTUS41 KALY 281000 AAA
TAFPOU
TAF AMD
KPOU 281010Z 2810/2906 16003KT P6SM -RA BKN100 OVC120
      TEMPO 2810/2813 5SM -RA BR BKN015 OVC050
     FM281300 22007KT P6SM VCSH BKN040
     FM281600 23010KT 5SM -SHRA BR BKN040 BKN090
     FM282100 26012KT P6SM BKN050=



000
FTUS41 KALY 281000 AAB
TAFGFL
TAF AMD
KGFL 281009Z 2810/2906 03005KT P6SM -RA OVC100
      TEMPO 2810/2813 5SM -RA BR OVC050
     FM281300 05006KT P6SM VCSH BKN050
     FM281600 06008KT 4SM -SHRA BR SCT008 OVC015
     FM282200 32010G16KT P6SM VCSH BKN015 OVC030
     FM290200 31006KT P6SM BKN050=



000
FTUS41 KALY 280900 AAB
TAFALB
TAF AMD
KALB 280902Z 2809/2906 11003KT 6SM -RA BR FEW025 BKN100 OVC130
      TEMPO 2809/2812 VRB15G25KT 2SM TSRA BR BKN009CB
     FM281300 15005KT P6SM VCSH BKN045 BKN090
     FM281600 15007KT 5SM -SHRA BR BKN040 BKN090
     FM282100 27013G20KT P6SM BKN050=



000
FTUS41 KALY 280900 AAA
TAFGFL
TAF AMD
KGFL 280901Z 2809/2906 03005KT 3SM -RA BR BKN035 OVC060
      TEMPO 2809/2810 23012G30KT 2SM TSRA BR BKN030CB OVC060
     FM281300 05006KT P6SM VCSH BKN050
     FM281600 06008KT 4SM -SHRA BR SCT008 OVC015
     FM282200 32010G16KT P6SM VCSH BKN015 OVC030
     FM290200 31006KT P6SM BKN050=



000
FTUS41 KALY 280700 AAA
TAFALB
TAF AMD
KALB 280723Z 2807/2906 00000KT P6SM SCT080 BKN150 BKN200
      TEMPO 2807/2808 5SM -TSRA BR BKN003 BKN050CB OVC100
     FM280900 11003KT 3SM RA BR BKN030 OVC080
      TEMPO 2809/2812 VRB15G25KT 1 1/2SM TSRA BR BKN009CB
     FM281300 15005KT P6SM VCSH BKN045 BKN090
     FM281600 15007KT 5SM -SHRA BR BKN040 BKN090 PROB30 2816/2820
      2SM -TSRA OVC030CB
     FM282100 27013G20KT P6SM BKN050=



000
FTUS41 KALY 280500
TAFPOU
TAF
KPOU 280537Z 2806/2906 13005KT P6SM SCT150 BKN250
     FM280800 10003KT 3SM -RA BR OVC025
      TEMPO 2808/2812 2SM -TSRA BR OVC020CB
     FM281300 22007KT P6SM VCSH BKN040
     FM281600 23010KT 5SM -SHRA BR BKN040 BKN090 PROB30 2816/2820
      2SM -TSRA OVC030CB
     FM282100 26012KT P6SM BKN050=



000
FTUS41 KALY 280500
TAFGFL
TAF
KGFL 280537Z 2806/2906 00000KT P6SM BKN150 BKN200
     FM280900 03005KT 3SM RA BR BKN030 OVC080
      TEMPO 2809/2812 2SM RA BR OVC009
     FM281300 05006KT P6SM VCSH BKN050
     FM281600 06008KT 4SM -SHRA BR SCT008 OVC015 PROB30 2816/2820
      2SM -TSRA OVC030CB
     FM282200 32010G16KT P6SM VCSH BKN015 OVC030
     FM290200 31006KT P6SM BKN050=



000
FTUS41 KALY 280500
TAFALB
TAF
KALB 280537Z 2806/2906 00000KT P6SM SCT080 BKN150 BKN200
     FM280900 11003KT 3SM RA BR BKN030 OVC080
      TEMPO 2809/2812 VRB15G25KT 1 1/2SM TSRA BR BKN009CB
     FM281300 15005KT P6SM VCSH BKN045 BKN090
     FM281600 15007KT 5SM -SHRA BR BKN040 BKN090 PROB30 2816/2820
      2SM -TSRA OVC030CB
     FM282100 27013G20KT P6SM BKN050=



000
FTUS41 KALY 280300 AAA
TAFALB
TAF AMD
KALB 280343Z 2804/2824 VRB03KT P6SM FEW070 BKN200
     FM280600 VRB03KT P6SM VCSH BKN080
     FM280900 04007KT 3SM RA BR BKN015 OVC080
      TEMPO 2809/2812 VRB15G25KT 1 1/2SM TSRA BR BKN009CB
     FM281500 16010KT 4SM -RA BR SCT009 OVC015
     FM282100 28017G28KT P6SM VCSH BKN015 OVC035=



000
FTUS41 KALY 280200 AAA
TAFGFL
TAF AMD
KGFL 280257Z 2803/2824 00000KT 5SM BR SCT120 BKN250
      TEMPO 2803/2806 1SM BR SCT250
     FM280600 00000KT 6SM BR BKN070 BKN250
     FM280900 03007KT 3SM RA BR SCT020 OVC040
     FM281600 06008KT 4SM -RA BR SCT008 OVC015
     FM282200 32010G18KT P6SM VCSH BKN015 OVC030=



000
FTUS41 KALY 272300 RRA
TAFGFL
TAF
KGFL 272344Z 2800/2824 20005KT P6SM SCT250
     FM280300 VRB03KT 5SM BR SCT120 BKN250
     FM280900 03007KT 3SM RA BR SCT020 OVC040 PROB30 2810/2816
      VRB15G25KT 2SM TSRA BR BKN008CB
     FM281600 06008KT 4SM -RA BR SCT008 OVC015
     FM282200 32010G18KT P6SM VCSH BKN015 OVC030=



000
FTUS41 KALY 272300 RRA
TAFALB
TAF
KALB 272344Z 2800/2824 19005KT P6SM FEW045 SCT250
      TEMPO 2802/2804 5SM BR BKN250
     FM280400 VRB03KT P6SM VCSH OVC120
     FM280900 04007KT 3SM RA BR BKN015 OVC080 PROB30 2809/2815
      VRB15G25KT 1 1/2SM TSRA BR BKN009CB
     FM281500 16010KT 4SM -RA BR SCT009 OVC015
     FM282100 28017G28KT P6SM VCSH BKN015 OVC035=



000
FTUS41 KALY 272300 RRA
TAFPOU
TAF
KPOU 272344Z 2800/2824 20006KT P6SM SCT040 SCT250
     FM280400 VRB02KT 6SM BR VCSH BKN040
      TEMPO 2804/2806 4SM -SHRA BR SCT025 OVC040
     FM280800 VRB05KT 3SM RA BR OVC025 PROB30 2809/2814 VRB15G30KT
      2SM TSRA BR OVC008CB
     FM281400 22010G16KT P6SM VCSH SCT008 OVC025
     FM281800 27014G22KT P6SM VCSH SCT025 BKN050=



000
FTUS41 KALY 271800 AAA
TAFALB
TAF AMD
KALB 271844Z 2719/2818 20009KT P6SM VCSH SCT025 BKN035
      TEMPO 2719/2721 VRB15G25KT 2SM TSRA BR OVC009CB
     FM280100 VRB04KT P6SM VCSH SCT035 OVC050
     FM280700 02008KT 3SM RA BR OVC015 PROB30 2808/2814 VRB15G25KT
      2SM TSRA BR OVC008CB=



000
FTUS41 KALY 271700
TAFGFL
TAF
KGFL 271739Z 2718/2818 20008KT P6SM VCSH SCT025 BKN035
      TEMPO 2718/2720 BKN025
     FM280100 VRB02KT P6SM VCSH SCT035 BKN050
     FM280900 01010KT 3SM RA BR OVC015 PROB30 2810/2816 VRB15G25KT
      2SM TSRA BR OVC008CB=



000
FTUS41 KALY 271700
TAFALB
TAF
KALB 271739Z 2718/2818 20009KT P6SM VCSH SCT025 BKN035
     FM280100 VRB04KT P6SM VCSH SCT035 OVC050
     FM280700 02008KT 3SM RA BR OVC015 PROB30 2808/2814 VRB15G25KT
      2SM TSRA BR OVC008CB=



000
FTUS41 KALY 271700
TAFPOU
TAF
KPOU 271739Z 2718/2818 22008KT P6SM SCT035 BKN045
     FM280100 VRB02KT P6SM VCSH SCT040 OVC060
     FM280600 VRB05KT 3SM RA BR OVC015 PROB30 2807/2811 VRB20G30KT
      2SM TSRA BR OVC008CB
     FM281200 22009KT P6SM VCSH SCT020 OVC035=



000
FTUS41 KALY 271600 AAB
TAFALB
TAF AMD
KALB 271608Z 2716/2812 19008KT P6SM FEW015 SCT025 BKN035
      TEMPO 2716/2718 SCT015 BKN025
     FM271800 20010G20KT P6SM VCSH SCT020 BKN035
     FM272100 22012KT P6SM SCT035 BKN250
     FM280400 VRB03KT 3SM RA BR OVC025=



000
FTUS41 KALY 271600 AAB
TAFALB
TAF AMD
KALB 271608Z 2716/2812 19008KT P6SM FEW015 SCT025 BKN035
      TEMPO 2716/2718 SCT015 BKN025
     FM271800 20010G20KT P6SM VCSH SCT020 BKN035
     FM272100 22012KT P6SM SCT035 BKN250
     FM280400 VRB03KT 3SM RA BR OVC025=



000
FTUS41 KALY 271500 AAA
TAFPOU
TAF AMD
KPOU 271505Z 2715/2812 VRB05KT P6SM VCSH SCT015 BKN040
      TEMPO 2715/2716 2SM TSRA BR BKN009 OVC020CB
     FM271800 21008KT P6SM VCSH SCT020 BKN035
     FM272100 23008KT P6SM SCT035 BKN250
     FM280300 VRB03KT 3SM RA BR OVC025=



000
FTUS41 KALY 271500 AAA
TAFALB
TAF AMD
KALB 271503Z 2715/2812 19010KT P6SM FEW015 SCT035 BKN045
     FM271800 20010G20KT P6SM VCSH SCT020 BKN035
     FM272100 22012KT P6SM SCT035 BKN250
     FM280400 VRB03KT 3SM RA BR OVC025=



000
FTUS41 KALY 271300 AAA
TAFGFL
TAF AMD
KGFL 271301Z 2713/2812 VRB03KT 3SM SHRA BR SCT015 OVC050
      TEMPO 2713/2714 VRB10G20KT 1SM TSRA BR OVC008CB
     FM271500 20008KT P6SM VCSH SCT020 BKN035
     FM272100 22008KT P6SM SCT035 BKN250
     FM280500 VRB03KT 3SM RA BR OVC025=



000
FTUS41 KALY 271100 CCA
TAFGFL
TAF COR
KGFL 271158Z 2712/2812 VRB03KT 4SM SHRA BR SCT015 OVC050
      TEMPO 2712/2714 VRB10G20KT 2SM TSRA OVC008CB
     FM271500 20008KT P6SM VCSH SCT020 BKN035
     FM272100 22008KT P6SM SCT035 BKN250
     FM280500 VRB03KT 3SM RA BR OVC025=



000
FTUS41 KALY 271100 CCA
TAFALB
TAF COR
KALB 271157Z 2712/2812 17011KT P6SM BKN010 OVC050
     FM271300 18012KT 5SM SHRA SCT010 OVC025
      TEMPO 2713/2715 VRB10G20KT 2SM TSRA OVC008CB
     FM271600 20010G20KT P6SM VCSH SCT020 BKN035
     FM272100 22012KT P6SM SCT035 BKN250
     FM280400 VRB03KT 3SM RA BR OVC025=



000
FTUS41 KALY 271100
TAFALB
TAF
KALB 271138Z 2712/2812 18011KT P6SM SCT010 OVC050
     FM271300 18012KT 5SM SHRA SCT010 OVC025
      TEMPO 2713/2715 VRB10G20KT 2SM TSRA OVC008CB
     FM271600 20010G20KT P6SM VCSH SCT020 BKN035
     FM272100 22012KT P6SM SCT035 BKN250
     FM280400 VRB03KT 3SM RA BR OVC025=



000
FTUS41 KALY 271100
TAFPOU
TAF
KPOU 271138Z 2712/2812 14006KT P6SM OVC060
      TEMPO 2712/2714 VRB10G20KT 3SM TSRA BR OVC015CB
     FM271400 19006KT P6SM VCSH OVC060
     FM271800 21008KT P6SM VCSH SCT020 BKN035
     FM272100 23008KT P6SM SCT035 BKN250
     FM280300 VRB03KT 3SM RA BR OVC025=



000
FTUS41 KALY 271100
TAFGFL
TAF
KGFL 271138Z 2712/2812 VRB03KT 4SM SHRA BR OVC015
      TEMPO 2712/2714 VRB10G20KT 2SM TSRA OVC008CB
     FM271500 20008KT P6SM VCSH SCT020 BKN035
     FM272100 22008KT P6SM SCT035 BKN250
     FM280500 VRB03KT 3SM RA BR OVC025=



000
FTUS41 KALY 271000 AAE
TAFGFL
TAF AMD
KGFL 271040Z 2711/2806 00000KT 3SM BR OVC015
     FM271200 VRB03KT 5SM SHRA OVC025
      TEMPO 2712/2715 2SM SHRA OVC008
     FM271500 20008KT P6SM VCSH SCT020 BKN035
     FM272100 22008KT P6SM SCT035 BKN250
     FM280500 VRB03KT 3SM RA BR OVC025=



000
FTUS41 KALY 271000 AAA
TAFALB
TAF AMD
KALB 271033Z 2711/2806 17010KT P6SM BKN010 BKN060 OVC140
     FM271300 18012KT 5SM SHRA OVC025
      TEMPO 2713/2716 2SM SHRA OVC008
     FM271600 20010G20KT P6SM VCSH SCT020 BKN035
     FM272100 22012KT P6SM SCT035 BKN250
     FM280400 VRB03KT 3SM RA BR OVC025=



000
FTUS41 KALY 271000 AAD
TAFGFL
TAF AMD
KGFL 271031Z 2711/2806 00000KT 1SM BR SCT003 BKN015 OVC080
     FM271200 VRB03KT P6SM -SHRA OVC060
     FM271800 20008KT P6SM VCSH SCT020 BKN035
     FM272100 22008KT P6SM SCT035 BKN250
     FM280500 VRB03KT 3SM RA BR OVC025=



000
FTUS41 KALY 270900 AAC
TAFGFL
TAF AMD
KGFL 270957Z 2710/2806 00000KT 1/2SM FG BKN003 OVC070
     FM271200 VRB03KT P6SM -SHRA OVC060
     FM271800 20008KT P6SM VCSH SCT020 BKN035
     FM272100 22008KT P6SM SCT035 BKN250
     FM280500 VRB03KT 3SM RA BR OVC025=



000
FTUS41 KALY 270900 AAB
TAFGFL
TAF AMD
KGFL 270905Z 2709/2806 00000KT 1/2SM FG BKN080 BKN090
     FM271200 VRB03KT P6SM -SHRA OVC060
     FM271800 20008KT P6SM VCSH SCT020 BKN035
     FM272100 22008KT P6SM SCT035 BKN250
     FM280500 VRB03KT 3SM RA BR OVC025=



000
FTUS41 KALY 270800 AAA
TAFGFL
TAF AMD
KGFL 270836Z 2709/2806 00000KT 2SM BR BKN080 BKN090
     FM271200 VRB03KT P6SM -SHRA OVC060
     FM271800 20008KT P6SM VCSH SCT020 BKN035
     FM272100 22008KT P6SM SCT035 BKN250
     FM280500 VRB03KT 3SM RA BR OVC025=



    US Dept of Commerce
    National Oceanic and Atmospheric Administration
    National Weather Service
    1325 East West Highway
    Silver Spring, MD 20910
    Page Author: NWS Internet Services Team
Disclaimer
Information Quality
Credits
Glossary
Privacy Policy
Freedom of Information Act (FOIA)
About Us
Career Opportunities